Time;durP1;ratioP1;P1;durP2;ratioP2;P2;SDS_P1;SDS_P2;PMS_P1;PMS_P2;Temp;Humidity;BMP_temperature;BMP_pressure;BME280_temperature;BME280_humidity;BME280_pressure;Samples;Min_cycle;Max_cycle;Signal;HPM_P1;HPM_P2
2023/12/03 00:02:21;;;;;;;0.30;0.30;;;;;;;;;;6293010;28;20013;-77
2023/12/03 00:05:22;;;;;;;0.30;0.30;;;;;;;;;;6292637;28;20041;-77
2023/12/03 00:08:22;;;;;;;0.30;0.30;;;;;;;;;;6292557;28;20021;-77
2023/12/03 00:11:22;;;;;;;0.30;0.30;;;;;;;;;;6292616;28;20039;-77
2023/12/03 00:14:22;;;;;;;0.30;0.30;;;;;;;;;;6293093;28;20026;-77
2023/12/03 00:17:22;;;;;;;0.30;0.30;;;;;;;;;;6274318;28;20375;-77
2023/12/03 00:20:23;;;;;;;0.30;0.30;;;;;;;;;;6293201;28;20021;-77
2023/12/03 00:23:23;;;;;;;0.20;0.20;;;;;;;;;;6299107;28;20152;-77
2023/12/03 00:26:23;;;;;;;0.20;0.20;;;;;;;;;;6284964;28;20517;-77
2023/12/03 00:29:23;;;;;;;0.30;0.30;;;;;;;;;;6287008;28;20028;-79
2023/12/03 00:32:23;;;;;;;0.30;0.30;;;;;;;;;;6292321;28;20144;-80
2023/12/03 00:35:24;;;;;;;0.30;0.30;;;;;;;;;;6292177;28;20032;-80
2023/12/03 00:38:24;;;;;;;0.30;0.30;;;;;;;;;;6292202;28;20021;-80
2023/12/03 00:41:25;;;;;;;0.30;0.30;;;;;;;;;;6292384;28;20028;-80
2023/12/03 00:44:25;;;;;;;0.30;0.30;;;;;;;;;;6292816;28;20021;-80
2023/12/03 00:47:25;;;;;;;0.30;0.30;;;;;;;;;;6300001;28;20372;-80
2023/12/03 00:50:26;;;;;;;0.30;0.30;;;;;;;;;;6291606;28;20019;-80
2023/12/03 00:53:26;;;;;;;0.30;0.30;;;;;;;;;;6279486;28;20035;-80
2023/12/03 00:56:26;;;;;;;0.30;0.30;;;;;;;;;;6291878;28;20066;-80
2023/12/03 00:59:26;;;;;;;0.30;0.30;;;;;;;;;;6273189;28;20047;-80
2023/12/03 01:02:27;;;;;;;0.20;0.20;;;;;;;;;;6295095;28;20059;-78
2023/12/03 01:05:27;;;;;;;0.30;0.30;;;;;;;;;;6292610;28;20093;-78
2023/12/03 01:08:27;;;;;;;0.30;0.30;;;;;;;;;;6291774;28;20033;-77
2023/12/03 01:11:27;;;;;;;0.20;0.20;;;;;;;;;;6288838;28;20029;-77
2023/12/03 01:14:27;;;;;;;0.30;0.30;;;;;;;;;;6291895;28;20020;-77
2023/12/03 01:17:28;;;;;;;0.30;0.30;;;;;;;;;;6291370;28;20443;-77
2023/12/03 01:20:28;;;;;;;0.20;0.20;;;;;;;;;;6291480;28;20475;-78
2023/12/03 01:23:28;;;;;;;0.30;0.30;;;;;;;;;;6291528;28;20059;-77
2023/12/03 01:26:28;;;;;;;0.30;0.30;;;;;;;;;;6291516;28;20426;-77
2023/12/03 01:29:28;;;;;;;0.20;0.20;;;;;;;;;;6286703;28;20035;-77
2023/12/03 01:32:29;;;;;;;0.20;0.20;;;;;;;;;;6272955;28;20032;-77
2023/12/03 01:35:29;;;;;;;0.30;0.30;;;;;;;;;;6273018;28;21185;-77
2023/12/03 01:38:29;;;;;;;0.30;0.30;;;;;;;;;;6291868;28;20024;-77
2023/12/03 01:41:29;;;;;;;0.20;0.20;;;;;;;;;;6290990;28;20056;-77
2023/12/03 01:44:29;;;;;;;0.30;0.30;;;;;;;;;;6291396;28;20104;-77
2023/12/03 01:47:30;;;;;;;0.30;0.30;;;;;;;;;;6291273;28;20025;-77
2023/12/03 01:50:30;;;;;;;0.30;0.30;;;;;;;;;;6272951;28;20024;-77
2023/12/03 01:53:31;;;;;;;0.30;0.30;;;;;;;;;;6291082;28;20077;-77
2023/12/03 01:56:31;;;;;;;0.30;0.30;;;;;;;;;;6291212;28;20087;-77
2023/12/03 01:59:31;;;;;;;0.30;0.30;;;;;;;;;;6290801;28;20367;-77
2023/12/03 02:02:31;;;;;;;0.30;0.30;;;;;;;;;;6274164;28;20497;-80
2023/12/03 02:05:32;;;;;;;0.40;0.40;;;;;;;;;;6294257;28;20538;-80
2023/12/03 02:08:32;;;;;;;0.30;0.30;;;;;;;;;;6295478;28;20021;-80
2023/12/03 02:11:33;;;;;;;0.30;0.30;;;;;;;;;;6295048;28;20075;-80
2023/12/03 02:14:33;;;;;;;0.30;0.30;;;;;;;;;;6295778;28;20036;-80
2023/12/03 02:17:34;;;;;;;0.40;0.40;;;;;;;;;;6295350;28;20024;-80
2023/12/03 02:20:34;;;;;;;0.30;0.30;;;;;;;;;;6295155;28;20021;-79
2023/12/03 02:23:34;;;;;;;0.30;0.30;;;;;;;;;;6294770;28;21296;-80
2023/12/03 02:26:35;;;;;;;0.30;0.30;;;;;;;;;;6295235;28;20544;-80
2023/12/03 02:29:35;;;;;;;0.30;0.30;;;;;;;;;;6295351;28;20033;-80
2023/12/03 02:32:35;;;;;;;0.30;0.30;;;;;;;;;;6262639;28;20539;-80
2023/12/03 02:35:35;;;;;;;0.30;0.30;;;;;;;;;;6294501;28;20111;-80
2023/12/03 02:38:36;;;;;;;0.30;0.30;;;;;;;;;;6294614;28;20450;-80
2023/12/03 02:41:36;;;;;;;0.40;0.40;;;;;;;;;;6266320;28;20052;-79
2023/12/03 02:44:36;;;;;;;0.30;0.30;;;;;;;;;;6291482;28;20024;-79
2023/12/03 02:47:36;;;;;;;0.32;0.32;;;;;;;;;;6308463;28;20470;-79
2023/12/03 02:50:36;;;;;;;0.30;0.30;;;;;;;;;;6294446;28;20031;-78
2023/12/03 02:53:37;;;;;;;0.30;0.30;;;;;;;;;;6294629;28;20422;-79
2023/12/03 02:56:37;;;;;;;0.33;0.33;;;;;;;;;;6292820;28;20013;-79
2023/12/03 02:59:37;;;;;;;0.30;0.30;;;;;;;;;;6294301;28;20059;-79
2023/12/03 03:02:37;;;;;;;0.30;0.30;;;;;;;;;;6260068;28;20013;-79
2023/12/03 03:05:38;;;;;;;0.30;0.30;;;;;;;;;;6276671;28;20027;-79
2023/12/03 03:08:38;;;;;;;0.30;0.30;;;;;;;;;;6294844;28;20028;-79
2023/12/03 03:11:38;;;;;;;0.30;0.30;;;;;;;;;;6288966;28;20048;-80
2023/12/03 03:14:38;;;;;;;0.30;0.30;;;;;;;;;;6293234;28;20024;-79
2023/12/03 03:17:38;;;;;;;0.30;0.30;;;;;;;;;;6293695;28;20506;-79
2023/12/03 03:20:39;;;;;;;0.20;0.20;;;;;;;;;;6293572;28;20483;-79
2023/12/03 03:23:39;;;;;;;0.30;0.30;;;;;;;;;;6294171;28;20042;-80
2023/12/03 03:26:42;;;;;;;0.30;0.30;;;;;;;;;;6293390;28;20055;-80
2023/12/03 03:29:42;;;;;;;0.30;0.30;;;;;;;;;;6293466;28;20055;-79
2023/12/03 03:32:42;;;;;;;0.30;0.30;;;;;;;;;;6284370;28;20042;-80
2023/12/03 03:35:42;;;;;;;0.27;0.27;;;;;;;;;;6290859;28;20017;-79
2023/12/03 03:38:43;;;;;;;0.30;0.30;;;;;;;;;;6273219;28;20127;-80
2023/12/03 03:41:43;;;;;;;0.30;0.30;;;;;;;;;;6290717;28;20952;-79
2023/12/03 03:44:43;;;;;;;0.30;0.30;;;;;;;;;;6309097;28;20393;-79
2023/12/03 03:47:43;;;;;;;0.30;0.30;;;;;;;;;;6296455;28;20096;-79
2023/12/03 03:50:44;;;;;;;0.30;0.30;;;;;;;;;;6307962;28;20107;-80
2023/12/03 03:53:44;;;;;;;0.30;0.30;;;;;;;;;;6299767;28;20024;-80
2023/12/03 03:56:45;;;;;;;0.30;0.30;;;;;;;;;;6307141;28;20024;-79
2023/12/03 03:59:45;;;;;;;0.30;0.30;;;;;;;;;;6292631;28;20035;-80
2023/12/03 04:02:46;;;;;;;0.30;0.30;;;;;;;;;;6287398;28;20449;-79
2023/12/03 04:05:46;;;;;;;0.30;0.30;;;;;;;;;;6284382;28;20098;-79
2023/12/03 04:08:46;;;;;;;0.30;0.30;;;;;;;;;;6292959;28;20021;-79
2023/12/03 04:11:46;;;;;;;0.30;0.30;;;;;;;;;;6302739;28;20032;-79
2023/12/03 04:14:47;;;;;;;0.30;0.30;;;;;;;;;;6292530;28;20043;-79
2023/12/03 04:17:47;;;;;;;0.30;0.30;;;;;;;;;;6291915;28;20051;-79
2023/12/03 04:20:47;;;;;;;0.30;0.30;;;;;;;;;;6291937;28;20367;-80
2023/12/03 04:23:47;;;;;;;0.30;0.30;;;;;;;;;;6292760;28;20036;-80
2023/12/03 04:26:47;;;;;;;0.30;0.30;;;;;;;;;;6292042;28;20038;-80
2023/12/03 04:29:48;;;;;;;0.30;0.30;;;;;;;;;;6292427;28;20047;-80
2023/12/03 04:32:48;;;;;;;0.40;0.40;;;;;;;;;;6292644;28;20028;-80
2023/12/03 04:35:48;;;;;;;0.30;0.30;;;;;;;;;;6292220;28;20138;-80
2023/12/03 04:38:49;;;;;;;0.30;0.30;;;;;;;;;;6282032;28;20044;-80
2023/12/03 04:41:49;;;;;;;0.30;0.30;;;;;;;;;;6287978;28;20034;-80
2023/12/03 04:44:49;;;;;;;0.40;0.40;;;;;;;;;;6273529;28;20025;-80
2023/12/03 04:47:50;;;;;;;0.30;0.30;;;;;;;;;;6306267;28;20028;-80
2023/12/03 04:50:50;;;;;;;0.40;0.40;;;;;;;;;;6292884;28;20027;-80
2023/12/03 04:53:50;;;;;;;0.30;0.30;;;;;;;;;;6280766;28;20032;-80
2023/12/03 04:56:50;;;;;;;0.30;0.30;;;;;;;;;;6285467;28;20048;-80
2023/12/03 04:59:51;;;;;;;0.40;0.40;;;;;;;;;;6292012;28;20025;-79
2023/12/03 05:02:51;;;;;;;0.37;0.37;;;;;;;;;;6292356;28;20126;-80
2023/12/03 05:05:51;;;;;;;0.30;0.30;;;;;;;;;;6289332;28;21504;-79
2023/12/03 05:08:52;;;;;;;0.30;0.30;;;;;;;;;;6292326;28;20024;-80
2023/12/03 05:11:52;;;;;;;0.30;0.30;;;;;;;;;;6289381;28;20024;-79
2023/12/03 05:14:52;;;;;;;0.30;0.30;;;;;;;;;;6292328;28;20028;-79
2023/12/03 05:17:52;;;;;;;0.30;0.30;;;;;;;;;;6291562;28;20099;-79
2023/12/03 05:20:52;;;;;;;0.30;0.30;;;;;;;;;;6291106;28;20154;-79
2023/12/03 05:23:53;;;;;;;0.30;0.30;;;;;;;;;;6292284;28;20020;-79
2023/12/03 05:26:53;;;;;;;0.30;0.30;;;;;;;;;;6285911;28;20483;-79
2023/12/03 05:29:53;;;;;;;0.30;0.30;;;;;;;;;;6293419;28;20033;-79
2023/12/03 05:32:53;;;;;;;0.30;0.30;;;;;;;;;;6291590;28;20039;-79
2023/12/03 05:35:53;;;;;;;0.30;0.30;;;;;;;;;;6290349;28;20024;-79
2023/12/03 05:38:54;;;;;;;0.30;0.30;;;;;;;;;;6288784;28;20012;-79
2023/12/03 05:41:54;;;;;;;0.30;0.30;;;;;;;;;;6296318;28;20086;-81
2023/12/03 05:44:54;;;;;;;0.30;0.30;;;;;;;;;;6295737;28;20985;-81
2023/12/03 05:47:54;;;;;;;0.30;0.30;;;;;;;;;;6295459;28;20025;-81
2023/12/03 05:50:55;;;;;;;0.30;0.30;;;;;;;;;;6294511;28;20542;-81
2023/12/03 05:53:56;;;;;;;0.30;0.30;;;;;;;;;;6291655;28;20087;-79
2023/12/03 05:56:56;;;;;;;0.30;0.30;;;;;;;;;;6277581;28;20467;-79
2023/12/03 05:59:56;;;;;;;0.37;0.37;;;;;;;;;;6284479;28;20024;-79
2023/12/03 06:02:59;;;;;;;0.30;0.30;;;;;;;;;;6296253;28;20441;-79
2023/12/03 06:05:59;;;;;;;0.30;0.30;;;;;;;;;;6297001;28;20425;-79
2023/12/03 06:08:59;;;;;;;0.30;0.30;;;;;;;;;;6292609;28;20031;-79
2023/12/03 06:11:59;;;;;;;0.30;0.30;;;;;;;;;;6274863;28;20115;-79
2023/12/03 06:15:00;;;;;;;0.30;0.30;;;;;;;;;;6292325;28;20019;-79
2023/12/03 06:18:00;;;;;;;0.30;0.30;;;;;;;;;;6295812;28;20155;-79
2023/12/03 06:21:00;;;;;;;0.30;0.30;;;;;;;;;;6307726;28;20028;-79
2023/12/03 06:24:00;;;;;;;0.30;0.30;;;;;;;;;;6289106;28;20052;-78
2023/12/03 06:27:00;;;;;;;0.30;0.30;;;;;;;;;;6294180;28;20039;-78
2023/12/03 06:30:01;;;;;;;0.37;0.37;;;;;;;;;;6299218;28;20487;-78
2023/12/03 06:33:01;;;;;;;0.40;0.40;;;;;;;;;;6295556;28;20043;-78
2023/12/03 06:36:01;;;;;;;0.30;0.30;;;;;;;;;;6272604;28;20099;-78
2023/12/03 06:39:01;;;;;;;0.30;0.30;;;;;;;;;;6297206;28;20017;-78
2023/12/03 06:42:02;;;;;;;0.30;0.30;;;;;;;;;;6289946;28;20028;-78
2023/12/03 06:45:03;;;;;;;0.30;0.30;;;;;;;;;;6294651;28;20023;-78
2023/12/03 06:48:04;;;;;;;0.30;0.30;;;;;;;;;;6292275;28;20024;-78
2023/12/03 06:51:04;;;;;;;0.30;0.30;;;;;;;;;;6292408;28;20020;-78
2023/12/03 06:54:04;;;;;;;0.30;0.30;;;;;;;;;;6284515;28;20029;-83
2023/12/03 06:57:06;;;;;;;0.30;0.30;;;;;;;;;;6294140;28;20017;-83
2023/12/03 07:00:06;;;;;;;0.30;0.30;;;;;;;;;;6294789;28;20483;-83
2023/12/03 07:03:06;;;;;;;0.30;0.30;;;;;;;;;;6294437;28;20099;-83
2023/12/03 07:06:07;;;;;;;0.30;0.30;;;;;;;;;;6288882;28;20108;-83
2023/12/03 07:09:07;;;;;;;0.30;0.30;;;;;;;;;;6294421;28;20027;-83
2023/12/03 07:12:08;;;;;;;0.30;0.30;;;;;;;;;;6293919;28;20017;-78
2023/12/03 07:15:08;;;;;;;0.30;0.30;;;;;;;;;;6293941;28;20024;-78
2023/12/03 07:18:08;;;;;;;0.40;0.40;;;;;;;;;;6265709;28;20024;-78
2023/12/03 07:21:09;;;;;;;0.30;0.30;;;;;;;;;;6291141;28;21291;-78
2023/12/03 07:24:09;;;;;;;0.30;0.30;;;;;;;;;;6291567;28;20028;-78
2023/12/03 07:27:09;;;;;;;0.30;0.30;;;;;;;;;;6272198;28;20025;-78
2023/12/03 07:30:10;;;;;;;0.30;0.30;;;;;;;;;;6302604;28;20082;-78
2023/12/03 07:33:10;;;;;;;0.30;0.30;;;;;;;;;;6302902;28;20017;-78
2023/12/03 07:36:11;;;;;;;0.30;0.30;;;;;;;;;;6291396;28;20394;-78
2023/12/03 07:39:11;;;;;;;0.30;0.30;;;;;;;;;;6292173;28;20081;-78
2023/12/03 07:42:11;;;;;;;0.30;0.30;;;;;;;;;;6292548;28;20524;-78
2023/12/03 07:45:11;;;;;;;0.30;0.30;;;;;;;;;;6292317;28;20021;-78
2023/12/03 07:48:12;;;;;;;0.30;0.30;;;;;;;;;;6292990;28;20013;-78
2023/12/03 07:51:12;;;;;;;0.30;0.30;;;;;;;;;;6293182;28;20021;-78
2023/12/03 07:54:12;;;;;;;0.30;0.30;;;;;;;;;;6273600;28;20020;-78
2023/12/03 07:57:12;;;;;;;0.30;0.30;;;;;;;;;;6292969;28;20036;-78
2023/12/03 08:00:13;;;;;;;0.30;0.30;;;;;;;;;;6274911;28;20012;-78
2023/12/03 08:03:13;;;;;;;0.20;0.20;;;;;;;;;;6291446;28;20118;-78
2023/12/03 08:06:13;;;;;;;0.30;0.30;;;;;;;;;;6292873;28;20066;-78
2023/12/03 08:09:13;;;;;;;0.30;0.30;;;;;;;;;;6292321;28;20437;-78
2023/12/03 08:12:14;;;;;;;0.30;0.30;;;;;;;;;;6292791;28;20016;-85
2023/12/03 08:15:14;;;;;;;0.30;0.30;;;;;;;;;;6281498;28;20013;-85
2023/12/03 08:18:14;;;;;;;0.30;0.30;;;;;;;;;;6298136;28;20473;-84
2023/12/03 08:21:14;;;;;;;0.30;0.30;;;;;;;;;;6295182;28;20020;-84
2023/12/03 08:24:14;;;;;;;0.30;0.30;;;;;;;;;;6269483;28;20021;-84
2023/12/03 08:27:15;;;;;;;0.30;0.30;;;;;;;;;;6312983;28;20027;-84
2023/12/03 08:30:16;;;;;;;0.30;0.30;;;;;;;;;;6290545;28;20611;-84
2023/12/03 08:33:16;;;;;;;0.30;0.30;;;;;;;;;;6300308;28;20470;-84
2023/12/03 08:36:18;;;;;;;0.20;0.20;;;;;;;;;;6300291;28;20026;-84
2023/12/03 08:39:18;;;;;;;0.30;0.30;;;;;;;;;;6311228;28;20012;-84
2023/12/03 08:42:19;;;;;;;0.30;0.30;;;;;;;;;;6274005;28;20263;-84
2023/12/03 08:45:19;;;;;;;0.30;0.30;;;;;;;;;;6293638;28;20032;-84
2023/12/03 08:48:20;;;;;;;0.30;0.30;;;;;;;;;;6287955;28;20378;-84
2023/12/03 08:51:21;;;;;;;0.30;0.30;;;;;;;;;;6297201;28;20016;-84
2023/12/03 08:54:21;;;;;;;0.30;0.30;;;;;;;;;;6273692;28;20656;-84
2023/12/03 08:57:22;;;;;;;0.30;0.30;;;;;;;;;;6299421;28;20370;-85
2023/12/03 09:00:24;;;;;;;0.30;0.30;;;;;;;;;;6297462;28;20531;-85
2023/12/03 09:03:24;;;;;;;;;;;;;;;;;;6288865;28;20491;-85
2023/12/03 09:06:27;;;;;;;0.20;0.20;;;;;;;;;;6291806;28;19904;-85
2023/12/03 09:09:27;;;;;;;0.20;0.20;;;;;;;;;;6291820;28;20029;-85
2023/12/03 09:12:27;;;;;;;0.30;0.30;;;;;;;;;;6291769;28;20107;-85
2023/12/03 09:15:27;;;;;;;0.30;0.30;;;;;;;;;;6295931;28;20008;-86
2023/12/03 09:18:28;;;;;;;0.20;0.20;;;;;;;;;;6297279;28;20095;-85
2023/12/03 09:21:28;;;;;;;0.30;0.30;;;;;;;;;;6296918;28;20016;-79
2023/12/03 09:24:29;;;;;;;0.30;0.30;;;;;;;;;;6296800;28;20099;-78
2023/12/03 09:27:29;;;;;;;0.30;0.30;;;;;;;;;;6296332;28;20020;-78
2023/12/03 09:30:29;;;;;;;0.30;0.30;;;;;;;;;;6278699;28;20036;-78
2023/12/03 09:33:30;;;;;;;0.20;0.20;;;;;;;;;;6278424;28;20028;-78
2023/12/03 09:36:30;;;;;;;0.23;0.23;;;;;;;;;;6296609;28;20016;-77
2023/12/03 09:39:31;;;;;;;0.30;0.30;;;;;;;;;;6296321;28;20027;-78
2023/12/03 09:42:34;;;;;;;0.30;0.30;;;;;;;;;;6296246;28;20024;-87
2023/12/03 09:45:35;;;;;;;0.20;0.20;;;;;;;;;;6296828;28;20024;-87
2023/12/03 09:48:41;;;;;;;0.30;0.30;;;;;;;;;;6286712;28;20032;-87
2023/12/03 09:51:41;;;;;;;0.20;0.20;;;;;;;;;;6299352;28;20445;-87
2023/12/03 09:54:42;;;;;;;0.30;0.30;;;;;;;;;;6303987;28;20020;-87
2023/12/03 09:57:44;;;;;;;0.30;0.30;;;;;;;;;;6281629;28;20021;-88
2023/12/03 10:00:44;;;;;;;0.30;0.30;;;;;;;;;;6296211;28;20071;-88
2023/12/03 10:03:44;;;;;;;0.30;0.30;;;;;;;;;;6286733;28;20037;-88
2023/12/03 10:06:46;;;;;;;0.30;0.30;;;;;;;;;;6296456;28;20044;-87
2023/12/03 10:09:48;;;;;;;0.30;0.30;;;;;;;;;;6295496;28;20099;-85
2023/12/03 10:12:50;;;;;;;0.30;0.30;;;;;;;;;;6296188;28;20062;-86
2023/12/03 10:15:50;;;;;;;;;;;;;;;;;;6278010;28;20360;-86
2023/12/03 10:18:51;;;;;;;0.30;0.30;;;;;;;;;;6295080;28;19908;-85
2023/12/03 10:21:54;;;;;;;0.30;0.30;;;;;;;;;;6277501;28;20552;-88
2023/12/03 10:24:57;;;;;;;0.20;0.20;;;;;;;;;;6294730;28;20048;-86
2023/12/03 10:27:58;;;;;;;0.25;0.25;;;;;;;;;;6294892;28;20020;-87
2023/12/03 10:31:00;;;;;;;0.30;0.30;;;;;;;;;;6264090;28;20099;-87
2023/12/03 10:34:01;;;;;;;;;;;;;;;;;;6295129;28;20078;-87
2023/12/03 10:37:01;;;;;;;0.30;0.30;;;;;;;;;;6295257;28;19908;-87
2023/12/03 10:40:03;;;;;;;0.30;0.30;;;;;;;;;;6294353;28;20362;-87
2023/12/03 10:43:03;;;;;;;0.30;0.30;;;;;;;;;;6277282;28;20056;-78
2023/12/03 10:46:13;;;;;;;0.20;0.20;;;;;;;;;;6295339;28;20749;-78
2023/12/03 10:49:14;;;;;;;0.30;0.30;;;;;;;;;;6294673;28;20109;-78
2023/12/03 10:52:14;;;;;;;0.30;0.30;;;;;;;;;;6308487;28;20032;-88
2023/12/03 10:55:15;;;;;;;0.30;0.30;;;;;;;;;;6308460;28;20048;-88
2023/12/03 10:58:19;;;;;;;0.30;0.30;;;;;;;;;;6280199;28;20021;-88
2023/12/03 11:01:25;;;;;;;0.30;0.30;;;;;;;;;;6276580;28;20020;-78
2023/12/03 11:04:34;;;;;;;0.30;0.30;;;;;;;;;;6285121;28;20052;-88
2023/12/03 11:07:34;;;;;;;0.20;0.20;;;;;;;;;;6294341;28;20025;-88
2023/12/03 11:10:35;;;;;;;0.30;0.30;;;;;;;;;;6279770;28;20119;-88
2023/12/03 11:13:37;;;;;;;0.28;0.28;;;;;;;;;;6286001;28;20026;-88
2023/12/03 11:16:58;;;;;;;0.30;0.30;;;;;;;;;;6294568;28;20021;-87
2023/12/03 11:20:00;;;;;;;0.20;0.20;;;;;;;;;;6251873;28;20021;-87
2023/12/03 11:23:20;;;;;;;0.30;0.30;;;;;;;;;;6275441;28;20112;-87
2023/12/03 11:26:20;;;;;;;0.20;0.20;;;;;;;;;;6294069;28;20099;-88
2023/12/03 11:29:40;;;;;;;0.30;0.30;;;;;;;;;;6279364;28;20085;-88
2023/12/03 11:32:40;;;;;;;0.30;0.30;;;;;;;;;;6292911;28;20055;-88
2023/12/03 11:35:42;;;;;;;0.30;0.30;;;;;;;;;;6275819;28;20064;-87
2023/12/03 11:38:42;;;;;;;0.30;0.30;;;;;;;;;;6293305;28;20095;-88
2023/12/03 11:41:44;;;;;;;0.30;0.30;;;;;;;;;;6292851;28;20021;-87
2023/12/03 11:44:45;;;;;;;0.30;0.30;;;;;;;;;;6270055;28;20548;-87
2023/12/03 11:48:05;;;;;;;0.30;0.30;;;;;;;;;;6289866;28;20024;-87
2023/12/03 11:51:06;;;;;;;0.30;0.30;;;;;;;;;;6283953;28;20013;-87
2023/12/03 11:54:09;;;;;;;0.30;0.30;;;;;;;;;;6292954;28;20132;-87
2023/12/03 11:57:16;;;;;;;0.30;0.30;;;;;;;;;;6275140;28;20254;-87
2023/12/03 12:00:16;;;;;;;0.30;0.30;;;;;;;;;;6268561;28;20034;-88
2023/12/03 12:03:16;;;;;;;0.20;0.20;;;;;;;;;;6265933;28;20044;-78
2023/12/03 12:06:30;;;;;;;0.30;0.30;;;;;;;;;;6292791;28;20032;-78
2023/12/03 12:09:31;;;;;;;0.30;0.30;;;;;;;;;;6274616;28;20418;-78
2023/12/03 12:12:33;;;;;;;0.30;0.30;;;;;;;;;;6292568;28;20045;-78
2023/12/03 12:15:46;;;;;;;0.30;0.30;;;;;;;;;;6291819;28;20008;-78
2023/12/03 12:18:48;;;;;;;0.20;0.20;;;;;;;;;;6291765;28;20036;-78
2023/12/03 12:21:48;;;;;;;;;;;;;;;;;;6292637;28;20378;-79
2023/12/03 12:24:48;;;;;;;0.20;0.20;;;;;;;;;;6273553;28;19912;-79
2023/12/03 12:27:49;;;;;;;0.20;0.20;;;;;;;;;;6291944;28;20013;-79
2023/12/03 12:30:50;;;;;;;0.20;0.20;;;;;;;;;;6291784;28;20024;-79
2023/12/03 12:33:50;;;;;;;0.20;0.20;;;;;;;;;;6273709;28;20028;-79
2023/12/03 12:37:02;;;;;;;0.20;0.20;;;;;;;;;;6273877;28;20016;-79
2023/12/03 12:40:09;;;;;;;0.30;0.30;;;;;;;;;;6273489;28;20017;-79
2023/12/03 12:43:11;;;;;;;0.20;0.20;;;;;;;;;;6291823;28;20087;-79
2023/12/03 12:46:16;;;;;;;0.30;0.30;;;;;;;;;;6292147;28;20112;-80
2023/12/03 12:49:16;;;;;;;0.20;0.20;;;;;;;;;;6274554;28;20349;-80
2023/12/03 12:52:17;;;;;;;0.20;0.20;;;;;;;;;;6292314;28;20023;-80
2023/12/03 12:55:25;;;;;;;0.20;0.20;;;;;;;;;;6256928;28;20075;-80
2023/12/03 12:58:25;;;;;;;0.20;0.20;;;;;;;;;;6291974;28;20017;-79
2023/12/03 13:01:28;;;;;;;0.20;0.20;;;;;;;;;;6291517;28;20103;-80
2023/12/03 13:04:28;;;;;;;0.20;0.20;;;;;;;;;;6269900;28;20056;-79
2023/12/03 13:07:30;;;;;;;0.30;0.30;;;;;;;;;;6295610;28;20363;-79
2023/12/03 13:10:34;;;;;;;0.30;0.30;;;;;;;;;;6291696;28;20052;-80
2023/12/03 13:13:36;;;;;;;0.30;0.30;;;;;;;;;;6305822;28;20062;-80
2023/12/03 13:16:36;;;;;;;;;;;;;;;;;;6274887;28;20020;-80
2023/12/03 13:19:37;;;;;;;0.20;0.20;;;;;;;;;;6291712;28;19909;-80
2023/12/03 13:22:37;;;;;;;0.30;0.30;;;;;;;;;;6291970;28;20044;-80
2023/12/03 13:25:38;;;;;;;0.30;0.30;;;;;;;;;;6278043;28;20021;-80
2023/12/03 13:28:38;;;;;;;0.27;0.27;;;;;;;;;;6291971;28;20083;-81
2023/12/03 13:31:46;;;;;;;0.30;0.30;;;;;;;;;;6291724;28;20494;-90
2023/12/03 13:34:48;;;;;;;0.30;0.30;;;;;;;;;;6304023;28;20024;-90
2023/12/03 13:37:48;;;;;;;;;;;;;;;;;;6267971;28;20020;-89
2023/12/03 13:40:48;;;;;;;0.30;0.30;;;;;;;;;;6276200;28;19912;-90
2023/12/03 13:43:49;;;;;;;0.20;0.20;;;;;;;;;;6296419;28;20029;-91
2023/12/03 13:46:54;;;;;;;0.30;0.30;;;;;;;;;;6292245;28;20597;-90
2023/12/03 13:49:55;;;;;;;0.30;0.30;;;;;;;;;;6295629;28;20073;-90
2023/12/03 13:52:55;;;;;;;0.20;0.20;;;;;;;;;;6272357;28;20418;-90
2023/12/03 13:55:56;;;;;;;0.20;0.20;;;;;;;;;;6273622;28;20056;-90
2023/12/03 13:58:58;;;;;;;0.30;0.30;;;;;;;;;;6290594;28;20051;-90
2023/12/03 14:01:58;;;;;;;0.30;0.30;;;;;;;;;;6274080;28;20009;-90
2023/12/03 14:04:58;;;;;;;0.30;0.30;;;;;;;;;;6293862;28;20056;-90
2023/12/03 14:08:00;;;;;;;0.30;0.30;;;;;;;;;;6278475;28;20020;-90
2023/12/03 14:11:01;;;;;;;;;;;;;;;;;;6297851;28;20029;-90
2023/12/03 14:14:02;;;;;;;0.30;0.30;;;;;;;;;;6290317;28;19948;-90
2023/12/03 14:17:06;;;;;;;0.30;0.30;;;;;;;;;;6282435;28;20036;-89
2023/12/03 14:20:08;;;;;;;0.20;0.20;;;;;;;;;;6302211;28;20094;-89
2023/12/03 14:23:09;;;;;;;0.30;0.30;;;;;;;;;;6293295;28;20020;-89
2023/12/03 14:26:09;;;;;;;0.30;0.30;;;;;;;;;;6275250;28;20558;-88
2023/12/03 14:29:11;;;;;;;0.40;0.40;;;;;;;;;;6287803;28;20028;-89
2023/12/03 14:32:11;;;;;;;0.30;0.30;;;;;;;;;;6290713;28;20032;-88
2023/12/03 14:35:12;;;;;;;0.30;0.30;;;;;;;;;;6276851;28;20017;-88
2023/12/03 14:38:13;;;;;;;0.30;0.30;;;;;;;;;;6295626;28;20009;-88
2023/12/03 14:41:15;;;;;;;0.30;0.30;;;;;;;;;;6295618;28;20008;-89
2023/12/03 14:44:17;;;;;;;0.30;0.30;;;;;;;;;;6263654;28;20020;-89
2023/12/03 14:47:17;;;;;;;0.30;0.30;;;;;;;;;;6278113;28;20074;-89
2023/12/03 14:50:19;;;;;;;0.30;0.30;;;;;;;;;;6273844;28;20033;-89
2023/12/03 14:53:19;;;;;;;0.30;0.30;;;;;;;;;;6294863;28;20058;-81
2023/12/03 14:56:27;;;;;;;0.30;0.30;;;;;;;;;;6276240;28;20363;-81
2023/12/03 14:59:28;;;;;;;0.30;0.30;;;;;;;;;;6293963;28;20101;-81
2023/12/03 15:02:29;;;;;;;0.30;0.30;;;;;;;;;;6290357;28;20028;-81
2023/12/03 15:05:32;;;;;;;0.30;0.30;;;;;;;;;;6288705;28;20482;-81
2023/12/03 15:08:35;;;;;;;0.30;0.30;;;;;;;;;;6290142;28;20029;-82
2023/12/03 15:11:37;;;;;;;0.30;0.30;;;;;;;;;;6272883;28;20483;-82
2023/12/03 15:14:37;;;;;;;;;;;;;;;;;;6292984;28;20355;-82
2023/12/03 15:17:38;;;;;;;0.30;0.30;;;;;;;;;;6289377;28;20496;-82
2023/12/03 15:20:41;;;;;;;0.30;0.30;;;;;;;;;;6272525;28;20428;-82
2023/12/03 15:23:43;;;;;;;0.30;0.30;;;;;;;;;;6305343;28;20568;-82
2023/12/03 15:26:44;;;;;;;0.30;0.30;;;;;;;;;;6291538;28;20474;-82
2023/12/03 15:29:47;;;;;;;0.30;0.30;;;;;;;;;;6272870;28;20033;-82
2023/12/03 15:32:48;;;;;;;0.30;0.30;;;;;;;;;;6291039;28;20016;-82
2023/12/03 15:35:49;;;;;;;0.30;0.30;;;;;;;;;;6287403;28;20062;-82
2023/12/03 15:38:51;;;;;;;0.30;0.30;;;;;;;;;;6268867;28;20529;-82
2023/12/03 15:41:53;;;;;;;0.40;0.40;;;;;;;;;;6298453;28;20072;-82
2023/12/03 15:44:55;;;;;;;0.40;0.40;;;;;;;;;;6287363;28;20343;-82
2023/12/03 15:47:55;;;;;;;;;;;;;;;;;;6273339;28;20028;-83
2023/12/03 15:50:56;;;;;;;0.30;0.30;;;;;;;;;;6284602;28;20007;-82
2023/12/03 15:53:58;;;;;;;0.30;0.30;;;;;;;;;;6290545;28;20039;-89
2023/12/03 15:57:01;;;;;;;0.30;0.30;;;;;;;;;;6292181;28;20012;-90
2023/12/03 16:00:01;;;;;;;0.30;0.30;;;;;;;;;;6294777;28;20072;-87
2023/12/03 16:03:03;;;;;;;0.30;0.30;;;;;;;;;;6296810;28;20044;-87
2023/12/03 16:06:03;;;;;;;0.30;0.30;;;;;;;;;;6274873;28;20024;-88
2023/12/03 16:09:03;;;;;;;0.30;0.30;;;;;;;;;;6248437;28;20032;-87
2023/12/03 16:12:07;;;;;;;0.30;0.30;;;;;;;;;;6272494;28;20063;-87
2023/12/03 16:15:08;;;;;;;0.30;0.30;;;;;;;;;;6288024;28;20033;-87
2023/12/03 16:18:13;;;;;;;0.30;0.30;;;;;;;;;;6272892;28;20107;-87
2023/12/03 16:21:13;;;;;;;0.30;0.30;;;;;;;;;;6291383;28;20254;-86
2023/12/03 16:24:13;;;;;;;0.30;0.30;;;;;;;;;;6294641;28;20020;-87
2023/12/03 16:27:14;;;;;;;0.20;0.20;;;;;;;;;;6279411;28;20020;-87
2023/12/03 16:30:16;;;;;;;0.20;0.20;;;;;;;;;;6289952;28;20104;-87
2023/12/03 16:33:17;;;;;;;0.30;0.30;;;;;;;;;;6300879;28;20023;-87
2023/12/03 16:36:18;;;;;;;;;;;;;;;;;;6287021;28;20439;-87
2023/12/03 16:39:18;;;;;;;0.30;0.30;;;;;;;;;;6272622;28;19911;-87
2023/12/03 16:42:21;;;;;;;0.30;0.30;;;;;;;;;;6289665;28;20270;-87
2023/12/03 16:45:25;;;;;;;0.30;0.30;;;;;;;;;;6249930;28;20035;-87
2023/12/03 16:48:25;;;;;;;0.30;0.30;;;;;;;;;;6270673;28;20066;-88
2023/12/03 16:51:25;;;;;;;0.30;0.30;;;;;;;;;;6285011;28;20499;-87
2023/12/03 16:54:27;;;;;;;0.30;0.30;;;;;;;;;;6265024;28;20033;-87
2023/12/03 16:57:27;;;;;;;;;;;;;;;;;;6272549;28;20028;-88
2023/12/03 17:00:29;;;;;;;0.30;0.30;;;;;;;;;;6293251;28;19911;-87
2023/12/03 17:03:30;;;;;;;;;;;;;;;;;;6283002;28;20098;-87
2023/12/03 17:06:30;;;;;;;0.30;0.30;;;;;;;;;;6272254;28;19916;-87
2023/12/03 17:09:30;;;;;;;0.30;0.30;;;;;;;;;;6299472;28;20033;-87
2023/12/03 17:12:33;;;;;;;0.30;0.30;;;;;;;;;;6272308;28;20077;-87
2023/12/03 17:15:36;;;;;;;0.30;0.30;;;;;;;;;;6270686;28;20020;-87
2023/12/03 17:18:36;;;;;;;0.30;0.30;;;;;;;;;;6278848;28;20027;-86
2023/12/03 17:21:37;;;;;;;0.30;0.30;;;;;;;;;;6291633;28;20473;-87
2023/12/03 17:24:37;;;;;;;0.30;0.30;;;;;;;;;;6289579;28;20032;-87
2023/12/03 17:27:38;;;;;;;0.30;0.30;;;;;;;;;;6289918;28;20456;-87
2023/12/03 17:30:38;;;;;;;0.30;0.30;;;;;;;;;;6289507;28;20024;-87
2023/12/03 17:33:38;;;;;;;0.30;0.30;;;;;;;;;;6271275;28;20028;-87
2023/12/03 17:36:38;;;;;;;0.30;0.30;;;;;;;;;;6275772;28;20012;-86
2023/12/03 17:39:39;;;;;;;0.30;0.30;;;;;;;;;;6308552;28;20453;-86
2023/12/03 17:42:44;;;;;;;0.30;0.30;;;;;;;;;;6274477;28;20497;-86
2023/12/03 17:45:44;;;;;;;0.30;0.30;;;;;;;;;;6293193;28;20032;-86
2023/12/03 17:48:46;;;;;;;0.30;0.30;;;;;;;;;;6294604;28;20066;-86
2023/12/03 17:51:54;;;;;;;0.30;0.30;;;;;;;;;;6272800;28;20024;-87
2023/12/03 17:54:55;;;;;;;0.40;0.40;;;;;;;;;;6305664;28;20031;-87
2023/12/03 17:57:55;;;;;;;0.30;0.30;;;;;;;;;;6276734;28;20024;-87
2023/12/03 18:00:55;;;;;;;0.30;0.30;;;;;;;;;;6299455;28;20471;-87
2023/12/03 18:03:55;;;;;;;0.30;0.30;;;;;;;;;;6291983;28;20045;-87
2023/12/03 18:06:57;;;;;;;0.30;0.30;;;;;;;;;;6294968;28;20048;-87
2023/12/03 18:10:00;;;;;;;0.30;0.30;;;;;;;;;;6293637;28;20110;-87